createdAt,value
2024-02-17T00:01:15.329Z,10.30
2024-02-17T00:03:48.948Z,8.50
2024-02-17T00:06:21.679Z,5.90
2024-02-17T00:08:53.431Z,8.00
2024-02-17T00:11:25.856Z,6.20
2024-02-17T00:13:57.710Z,4.70
2024-02-17T00:16:29.718Z,6.70
2024-02-17T00:21:32.175Z,6.00
2024-02-17T00:24:04.045Z,6.90
2024-02-17T00:26:35.874Z,4.80
2024-02-17T00:29:07.659Z,7.20
2024-02-17T00:31:39.299Z,7.40
2024-02-17T00:34:11.102Z,6.40
2024-02-17T00:36:43.217Z,4.70
2024-02-17T00:39:15.033Z,6.20
2024-02-17T00:41:47.094Z,5.70
2024-02-17T00:44:19.035Z,7.30
2024-02-17T00:46:50.794Z,5.40
2024-02-17T00:49:22.709Z,6.20
2024-02-17T00:54:24.776Z,5.20
2024-02-17T00:56:56.492Z,9.00
2024-02-17T00:59:28.118Z,5.20
2024-02-17T01:02:01.815Z,5.20
2024-02-17T01:04:33.818Z,5.40
2024-02-17T01:09:36.074Z,5.80
2024-02-17T01:12:08.645Z,6.10
2024-02-17T01:14:40.308Z,6.20
2024-02-17T01:17:12.093Z,5.90
2024-02-17T01:19:43.981Z,5.60
2024-02-17T01:24:46.283Z,5.30
2024-02-17T01:29:48.169Z,5.90
2024-02-17T01:32:19.955Z,6.60
2024-02-17T01:34:51.691Z,7.70
2024-02-17T01:37:23.546Z,5.50
2024-02-17T01:39:55.453Z,6.00
2024-02-17T01:42:27.198Z,5.30
2024-02-17T01:44:58.908Z,7.70
2024-02-17T01:47:31.765Z,7.50
2024-02-17T01:50:03.822Z,7.10
2024-02-17T01:55:11.177Z,6.50
2024-02-17T01:57:46.624Z,5.90
2024-02-17T02:00:20.661Z,7.50
2024-02-17T02:02:52.863Z,6.90
2024-02-17T02:05:25.122Z,7.90
2024-02-17T02:07:57.352Z,7.00
2024-02-17T02:10:29.194Z,7.70
2024-02-17T02:13:00.997Z,6.60
2024-02-17T02:18:17.410Z,7.20
2024-02-17T02:23:20.112Z,7.00
2024-02-17T02:25:55.312Z,6.10
2024-02-17T02:28:28.103Z,6.60
2024-02-17T02:31:00.476Z,7.10
2024-02-17T02:33:32.416Z,7.90
2024-02-17T02:36:04.479Z,10.70
2024-02-17T02:41:06.854Z,7.70
2024-02-17T02:43:38.988Z,8.10
2024-02-17T02:46:11.380Z,9.00
2024-02-17T02:48:43.305Z,8.30
2024-02-17T02:53:48.568Z,11.10
2024-02-17T02:56:20.299Z,7.50
2024-02-17T02:58:52.075Z,7.20
2024-02-17T03:01:23.849Z,6.90
2024-02-17T03:03:55.679Z,6.30
2024-02-17T03:06:28.606Z,7.30
2024-02-17T03:09:00.458Z,8.00
2024-02-17T03:11:32.282Z,9.10
2024-02-17T03:14:03.960Z,8.50
2024-02-17T03:16:35.727Z,7.70
2024-02-17T03:19:07.494Z,9.90
2024-02-17T03:21:41.115Z,9.20
2024-02-17T03:24:13.103Z,9.80
2024-02-17T03:26:44.787Z,8.60
2024-02-17T03:29:16.541Z,7.60
2024-02-17T03:31:48.749Z,8.20
2024-02-17T03:34:20.568Z,8.00
2024-02-17T03:36:52.323Z,8.60
2024-02-17T03:41:56.524Z,9.40
2024-02-17T03:44:28.373Z,9.30
2024-02-17T03:47:00.170Z,9.40
2024-02-17T03:49:34.289Z,8.70
2024-02-17T03:52:06.283Z,8.50
2024-02-17T03:54:38.050Z,7.30
2024-02-17T03:57:09.913Z,7.10
2024-02-17T03:59:41.540Z,9.50
2024-02-17T04:02:13.726Z,8.10
2024-02-17T04:04:45.452Z,8.50
2024-02-17T04:07:17.271Z,7.70
2024-02-17T04:09:49.122Z,8.50
2024-02-17T04:12:20.825Z,8.50
2024-02-17T04:14:52.619Z,8.80
2024-02-17T04:17:24.498Z,9.00
2024-02-17T04:19:56.228Z,11.00
2024-02-17T04:22:28.010Z,7.50
2024-02-17T04:24:59.730Z,8.30
2024-02-17T04:27:31.640Z,8.30
2024-02-17T04:30:04.007Z,7.90
2024-02-17T04:32:35.921Z,6.70
2024-02-17T04:35:10.363Z,6.80
2024-02-17T04:37:42.139Z,7.60
2024-02-17T04:40:15.201Z,8.80
2024-02-17T04:42:47.199Z,7.20
2024-02-17T04:45:19.068Z,8.60
2024-02-17T04:47:50.809Z,7.70
2024-02-17T04:50:22.755Z,7.70
2024-02-17T04:52:54.462Z,8.10
2024-02-17T04:55:27.589Z,7.60
2024-02-17T04:57:59.737Z,9.70
2024-02-17T05:00:31.624Z,6.80
2024-02-17T05:03:04.406Z,8.10
2024-02-17T05:05:36.176Z,7.10
2024-02-17T05:08:08.985Z,8.70
2024-02-17T05:10:41.700Z,10.50
2024-02-17T05:13:13.506Z,7.40
2024-02-17T05:15:45.514Z,7.40
2024-02-17T05:20:48.750Z,7.60
2024-02-17T05:23:20.574Z,8.40
2024-02-17T05:25:52.859Z,8.80
2024-02-17T05:30:56.294Z,9.30
2024-02-17T05:33:28.772Z,12.00
2024-02-17T05:36:00.592Z,7.40
2024-02-17T05:38:32.213Z,6.80
2024-02-17T05:41:03.983Z,7.10
2024-02-17T05:43:35.615Z,9.10
2024-02-17T05:46:07.502Z,9.30
2024-02-17T05:48:39.383Z,6.90
2024-02-17T05:51:11.155Z,8.80
2024-02-17T05:53:42.881Z,7.50
2024-02-17T05:56:14.686Z,8.70
2024-02-17T05:58:47.016Z,8.60
2024-02-17T06:01:18.800Z,8.70
2024-02-17T06:03:50.780Z,8.90
2024-02-17T06:06:22.585Z,14.40
2024-02-17T06:08:54.295Z,7.50
2024-02-17T06:11:25.975Z,8.70
2024-02-17T06:13:58.323Z,9.70
2024-02-17T06:16:31.845Z,7.10
2024-02-17T06:19:20.896Z,7.50
2024-02-17T06:21:52.698Z,7.50
2024-02-17T06:24:24.393Z,7.20
2024-02-17T06:26:56.058Z,10.10
2024-02-17T06:29:27.768Z,7.90
2024-02-17T06:31:59.435Z,7.10
2024-02-17T06:34:31.168Z,6.10
2024-02-17T06:37:05.090Z,9.50
2024-02-17T06:39:36.843Z,9.50
2024-02-17T06:42:09.000Z,7.60
2024-02-17T06:47:10.839Z,8.00
2024-02-17T06:49:42.640Z,7.80
2024-02-17T06:52:14.307Z,8.00
2024-02-17T06:54:46.057Z,8.20
2024-02-17T06:57:17.848Z,7.10
2024-02-17T06:59:49.634Z,7.80
2024-02-17T07:02:25.247Z,7.80
2024-02-17T07:04:58.015Z,7.90
2024-02-17T07:07:29.688Z,6.00
2024-02-17T07:10:05.229Z,6.70
2024-02-17T07:12:39.216Z,9.00
2024-02-17T07:15:12.318Z,10.10
2024-02-17T07:17:44.713Z,8.30
2024-02-17T07:20:16.678Z,6.70
2024-02-17T07:22:48.396Z,9.00
2024-02-17T07:25:20.137Z,8.30
2024-02-17T07:27:51.984Z,7.10
2024-02-17T07:30:23.817Z,9.70
2024-02-17T07:32:55.624Z,7.50
2024-02-17T07:35:27.370Z,7.40
2024-02-17T07:37:58.968Z,8.50
2024-02-17T07:40:30.691Z,10.60
2024-02-17T07:43:02.361Z,8.10
2024-02-17T07:45:34.495Z,7.20
2024-02-17T07:48:07.103Z,10.20
2024-02-17T07:50:38.884Z,10.60
2024-02-17T07:53:10.579Z,8.80
2024-02-17T07:55:42.325Z,8.30
2024-02-17T07:58:14.043Z,7.90
2024-02-17T08:00:45.750Z,6.50
2024-02-17T08:03:18.826Z,8.50
2024-02-17T08:05:52.839Z,9.50
2024-02-17T08:08:26.082Z,7.10
2024-02-17T08:10:58.808Z,8.80
2024-02-17T08:13:31.562Z,7.30
2024-02-17T08:16:03.668Z,7.80
2024-02-17T08:18:35.593Z,7.00
2024-02-17T08:21:07.910Z,10.00
2024-02-17T08:23:39.568Z,9.40
2024-02-17T08:26:13.185Z,9.50
2024-02-17T08:28:45.218Z,9.80
2024-02-17T08:33:47.307Z,8.10
2024-02-17T08:36:20.610Z,7.50
2024-02-17T08:38:54.254Z,8.50
2024-02-17T08:41:26.721Z,8.50
2024-02-17T08:43:58.616Z,8.80
2024-02-17T08:46:30.332Z,9.60
2024-02-17T08:49:02.119Z,9.70
2024-02-17T08:51:33.861Z,11.80
2024-02-17T08:54:05.958Z,8.00
2024-02-17T08:59:07.721Z,6.80
2024-02-17T09:01:39.445Z,7.30
2024-02-17T09:04:11.213Z,9.10
2024-02-17T09:06:43.114Z,7.90
2024-02-17T09:09:15.507Z,10.10
2024-02-17T09:11:47.408Z,10.70
2024-02-17T09:14:19.183Z,13.00
2024-02-17T09:16:50.972Z,10.20
2024-02-17T09:19:22.942Z,12.00
2024-02-17T09:24:26.644Z,10.10
2024-02-17T09:27:01.601Z,11.40
2024-02-17T09:29:34.213Z,11.50
2024-02-17T09:32:08.044Z,11.60
2024-02-17T09:34:40.769Z,10.30
2024-02-17T09:37:15.184Z,11.60
2024-02-17T09:39:53.173Z,11.00
2024-02-17T09:42:25.088Z,12.00
2024-02-17T09:44:56.882Z,11.10
2024-02-17T09:47:38.119Z,10.60
2024-02-17T09:54:14.962Z,11.80
2024-02-17T09:56:55.243Z,11.20
2024-02-17T09:59:28.075Z,12.80
2024-02-17T10:01:59.968Z,12.40
2024-02-17T10:07:07.173Z,11.20
2024-02-17T10:09:39.144Z,10.40
2024-02-17T10:14:44.583Z,11.00
2024-02-17T10:17:16.418Z,11.10
2024-02-17T10:22:18.852Z,9.70
2024-02-17T10:27:25.222Z,8.60
2024-02-17T10:30:15.514Z,11.80
2024-02-17T10:32:51.582Z,11.00
2024-02-17T10:35:25.820Z,10.20
2024-02-17T10:38:00.060Z,9.40
2024-02-17T10:40:33.557Z,11.00
2024-02-17T10:43:06.389Z,10.40
2024-02-17T10:45:39.421Z,10.60
2024-02-17T10:48:13.712Z,8.90
2024-02-17T10:50:51.821Z,13.50
2024-02-17T10:53:29.916Z,9.80
2024-02-17T10:56:06.150Z,12.70
2024-02-17T10:58:41.406Z,11.40
2024-02-17T11:01:14.905Z,11.20
2024-02-17T11:03:48.953Z,9.50
2024-02-17T11:06:21.896Z,11.10
2024-02-17T11:08:53.985Z,12.40
2024-02-17T11:11:28.108Z,9.70
2024-02-17T11:14:01.034Z,10.20
2024-02-17T11:16:38.030Z,10.70
2024-02-17T11:19:13.978Z,9.30
2024-02-17T11:21:48.041Z,10.50
2024-02-17T11:24:22.054Z,9.70
2024-02-17T11:26:55.361Z,11.80
2024-02-17T11:29:35.753Z,10.40
2024-02-17T11:32:08.546Z,9.50
2024-02-17T11:34:42.124Z,10.10
2024-02-17T11:37:15.216Z,9.10
2024-02-17T11:39:49.002Z,10.30
2024-02-17T11:42:21.568Z,12.50
2024-02-17T11:44:57.003Z,9.70
2024-02-17T11:47:31.662Z,8.90
2024-02-17T11:50:12.015Z,10.70
2024-02-17T11:52:43.969Z,9.60
2024-02-17T11:55:16.410Z,9.50
2024-02-17T11:57:48.506Z,9.20
2024-02-17T12:00:20.660Z,10.10
2024-02-17T12:02:53.952Z,8.60
2024-02-17T12:05:26.434Z,9.10
2024-02-17T12:07:58.462Z,9.10
2024-02-17T12:10:30.760Z,7.80
2024-02-17T12:13:02.769Z,9.10
2024-02-17T12:15:34.644Z,6.50
2024-02-17T12:20:37.981Z,7.80
2024-02-17T12:25:42.368Z,7.30
2024-02-17T12:28:15.450Z,6.00
2024-02-17T12:30:51.994Z,10.80
2024-02-17T12:33:23.922Z,7.00
2024-02-17T12:35:56.773Z,6.90
2024-02-17T12:38:29.035Z,9.50
2024-02-17T12:41:04.816Z,6.70
2024-02-17T12:43:41.677Z,7.20
2024-02-17T12:46:25.406Z,7.20
2024-02-17T12:48:59.674Z,7.50
2024-02-17T12:51:34.047Z,7.10
2024-02-17T12:54:06.244Z,7.50
2024-02-17T12:56:38.954Z,6.80
2024-02-17T12:59:11.158Z,7.30
2024-02-17T13:01:43.392Z,19.50
2024-02-17T13:04:15.275Z,7.60
2024-02-17T13:06:47.307Z,7.80
2024-02-17T13:09:19.693Z,8.10
2024-02-17T13:11:52.573Z,6.40
2024-02-17T13:14:27.955Z,9.10
2024-02-17T13:16:59.902Z,7.10
2024-02-17T13:19:32.168Z,8.30
2024-02-17T13:22:05.702Z,5.90
2024-02-17T13:24:37.656Z,8.90
2024-02-17T13:27:10.025Z,9.00
2024-02-17T13:29:41.934Z,7.90
2024-02-17T13:34:44.333Z,6.00
2024-02-17T13:37:16.561Z,7.70
2024-02-17T13:39:48.495Z,7.50
2024-02-17T13:42:20.431Z,6.30
2024-02-17T13:44:52.282Z,7.70
2024-02-17T13:49:54.806Z,6.90
2024-02-17T13:52:26.831Z,6.70
2024-02-17T13:57:29.716Z,5.40
2024-02-17T14:00:02.070Z,5.90
2024-02-17T14:02:37.835Z,5.70
2024-02-17T14:05:10.416Z,6.80
2024-02-17T14:07:42.266Z,5.60
2024-02-17T14:12:44.555Z,5.90
2024-02-17T14:15:16.587Z,5.80
2024-02-17T14:17:48.518Z,5.60
2024-02-17T14:20:20.813Z,4.80
2024-02-17T14:22:52.781Z,5.50
2024-02-17T14:25:24.889Z,5.60
2024-02-17T14:28:06.348Z,6.30
2024-02-17T14:30:44.324Z,4.60
2024-02-17T14:35:47.096Z,6.10
2024-02-17T14:38:19.060Z,4.60
2024-02-17T14:40:51.542Z,6.00
2024-02-17T14:43:24.225Z,4.30
2024-02-17T14:45:56.133Z,5.00
2024-02-17T14:50:59.214Z,3.90
2024-02-17T14:53:31.293Z,4.20
2024-02-17T14:58:37.876Z,4.00
2024-02-17T15:01:11.700Z,3.50
2024-02-17T15:03:44.159Z,4.00
2024-02-17T15:06:16.663Z,4.20
2024-02-17T15:08:48.489Z,4.80
2024-02-17T15:11:21.134Z,3.90
2024-02-17T15:13:53.220Z,3.70
2024-02-17T15:16:25.133Z,5.00
2024-02-17T15:18:56.958Z,3.80
2024-02-17T15:23:59.115Z,3.40
2024-02-17T15:26:30.847Z,4.70
2024-02-17T15:29:02.852Z,3.50
2024-02-17T15:31:34.958Z,4.50
2024-02-17T15:34:06.931Z,3.60
2024-02-17T15:36:38.984Z,4.70
2024-02-17T15:39:10.755Z,3.80
2024-02-17T15:44:13.261Z,3.80
2024-02-17T15:46:45.049Z,3.70
2024-02-17T15:49:17.336Z,3.50
2024-02-17T15:51:49.231Z,3.30
2024-02-17T15:56:56.306Z,3.00
2024-02-17T15:59:28.731Z,4.80
2024-02-17T16:02:03.055Z,2.40
2024-02-17T16:04:35.176Z,4.00
2024-02-17T16:07:07.228Z,4.00
2024-02-17T16:09:39.143Z,3.00
2024-02-17T16:12:11.543Z,2.90
2024-02-17T16:14:43.507Z,2.50
2024-02-17T16:17:15.414Z,4.40
2024-02-17T16:22:18.219Z,2.40
2024-02-17T16:24:50.247Z,3.30
2024-02-17T16:27:22.630Z,2.20
2024-02-17T16:29:54.620Z,3.00
2024-02-17T16:34:58.095Z,3.20
2024-02-17T16:37:30.067Z,2.30
2024-02-17T16:45:09.144Z,2.90
2024-02-17T16:47:41.772Z,3.00
2024-02-17T16:50:14.303Z,5.00
2024-02-17T16:52:46.833Z,3.80
2024-02-17T16:55:19.899Z,6.00
2024-02-17T16:57:52.264Z,5.90
2024-02-17T17:00:25.058Z,4.50
2024-02-17T17:02:57.350Z,6.60
2024-02-17T17:05:32.066Z,7.50
2024-02-17T17:08:04.246Z,8.90
2024-02-17T17:10:36.495Z,8.50
2024-02-17T17:13:08.864Z,7.00
2024-02-17T17:15:40.950Z,9.70
2024-02-17T17:18:13.446Z,9.70
2024-02-17T17:20:49.509Z,12.10
2024-02-17T17:23:23.364Z,21.00
2024-02-17T17:25:58.567Z,19.10
2024-02-17T17:28:30.735Z,11.80
2024-02-17T17:31:02.987Z,9.20
2024-02-17T17:33:35.446Z,7.00
2024-02-17T17:36:09.436Z,9.10
2024-02-17T17:38:42.049Z,10.30
2024-02-17T17:41:14.104Z,8.30
2024-02-17T17:43:46.196Z,7.00
2024-02-17T17:46:18.422Z,4.00
2024-02-17T17:48:52.196Z,5.10
2024-02-17T17:51:24.531Z,8.50
2024-02-17T17:53:56.629Z,6.70
2024-02-17T17:56:29.086Z,5.20
2024-02-17T17:59:01.333Z,7.00
2024-02-17T18:01:33.697Z,5.20
2024-02-17T18:04:06.152Z,8.00
2024-02-17T18:06:41.525Z,7.40
2024-02-17T18:09:14.139Z,6.30
2024-02-17T18:11:46.392Z,5.60
2024-02-17T18:14:18.574Z,5.90
2024-02-17T18:16:50.654Z,8.80
2024-02-17T18:19:23.169Z,3.20
2024-02-17T18:21:55.508Z,4.30
2024-02-17T18:24:27.719Z,4.30
2024-02-17T18:26:59.820Z,4.50
2024-02-17T18:29:31.898Z,5.60
2024-02-17T18:32:03.891Z,4.00
2024-02-17T18:34:35.989Z,5.80
2024-02-17T18:37:08.180Z,4.90
2024-02-17T18:39:42.315Z,4.20
2024-02-17T18:42:14.806Z,4.60
2024-02-17T18:44:47.405Z,6.00
2024-02-17T18:47:19.572Z,4.50
2024-02-17T18:49:52.846Z,6.50
2024-02-17T18:52:29.142Z,5.80
2024-02-17T18:55:01.502Z,4.90
2024-02-17T18:57:33.657Z,4.10
2024-02-17T19:00:06.389Z,4.40
2024-02-17T19:02:39.512Z,4.60
2024-02-17T19:05:12.572Z,3.50
2024-02-17T19:07:45.582Z,3.60
2024-02-17T19:10:21.714Z,3.30
2024-02-17T19:12:54.066Z,4.60
2024-02-17T19:15:29.325Z,8.30
2024-02-17T19:18:01.424Z,7.40
2024-02-17T19:20:34.098Z,6.50
2024-02-17T19:23:08.347Z,5.60
2024-02-17T19:25:42.125Z,7.40
2024-02-17T19:28:13.944Z,4.70
2024-02-17T19:33:18.240Z,6.50
2024-02-17T19:35:51.933Z,4.80
2024-02-17T19:38:25.045Z,7.40
2024-02-17T19:40:57.490Z,5.10
2024-02-17T19:43:31.138Z,7.40
2024-02-17T19:46:04.328Z,13.80
2024-02-17T19:48:36.898Z,10.10
2024-02-17T19:51:08.877Z,9.60
2024-02-17T19:53:41.144Z,13.90
2024-02-17T19:58:43.605Z,10.70
2024-02-17T20:01:16.397Z,10.10
2024-02-17T20:03:49.135Z,7.10
2024-02-17T20:06:21.226Z,7.30
2024-02-17T20:08:53.318Z,5.70
2024-02-17T20:11:26.378Z,6.60
2024-02-17T20:13:58.776Z,7.00
2024-02-17T20:16:30.747Z,6.20
2024-02-17T20:19:02.958Z,7.70
2024-02-17T20:21:38.158Z,4.70
2024-02-17T20:24:10.706Z,5.80
2024-02-17T20:26:42.523Z,6.80
2024-02-17T20:29:14.366Z,8.40
2024-02-17T20:31:46.827Z,8.20
2024-02-17T20:34:19.111Z,7.70
2024-02-17T20:36:53.061Z,8.50
2024-02-17T20:39:25.169Z,9.20
2024-02-17T20:41:58.051Z,6.00
2024-02-17T20:44:36.349Z,6.00
2024-02-17T20:47:09.532Z,6.00
2024-02-17T20:49:41.943Z,5.90
2024-02-17T20:52:14.125Z,7.40
2024-02-17T20:57:18.621Z,6.40
2024-02-17T21:02:22.186Z,6.10
2024-02-17T21:04:54.515Z,8.40
2024-02-17T21:07:26.292Z,6.70
2024-02-17T21:09:58.275Z,10.60
2024-02-17T21:12:30.103Z,10.20
2024-02-17T21:15:01.958Z,11.40
2024-02-17T21:17:35.041Z,14.50
2024-02-17T21:20:10.430Z,9.70
2024-02-17T21:22:42.348Z,8.00
2024-02-17T21:27:44.800Z,13.80
2024-02-17T21:30:17.196Z,9.20
2024-02-17T21:32:49.297Z,8.40
2024-02-17T21:35:21.254Z,10.10
2024-02-17T21:37:53.000Z,6.70
2024-02-17T21:40:25.046Z,7.20
2024-02-17T21:42:56.840Z,6.70
2024-02-17T21:45:29.688Z,7.50
2024-02-17T21:48:02.273Z,8.30
2024-02-17T21:50:34.235Z,8.10
2024-02-17T21:53:06.382Z,10.50
2024-02-17T21:55:38.527Z,8.40
2024-02-17T21:58:10.427Z,10.10
2024-02-17T22:05:43.592Z,8.70
2024-02-17T22:08:15.357Z,13.50
2024-02-17T22:10:47.301Z,8.00
2024-02-17T22:13:18.983Z,8.70
2024-02-17T22:15:50.844Z,7.00
2024-02-17T22:20:53.709Z,9.00
2024-02-17T22:23:25.475Z,7.80
2024-02-17T22:25:57.206Z,7.60
2024-02-17T22:28:33.142Z,7.50
2024-02-17T22:31:28.688Z,9.80
2024-02-17T22:37:56.944Z,7.40
2024-02-17T22:40:30.184Z,7.40
2024-02-17T22:43:02.820Z,7.00
2024-02-17T22:45:35.225Z,7.70
2024-02-17T22:48:10.509Z,9.60
2024-02-17T22:50:42.696Z,7.60
2024-02-17T22:53:15.145Z,7.30
2024-02-17T22:55:47.083Z,8.40
2024-02-17T23:00:50.548Z,8.30
2024-02-17T23:13:49.290Z,8.30
2024-02-17T23:17:36.911Z,9.80
2024-02-17T23:24:22.046Z,7.90
2024-02-17T23:27:10.688Z,7.40
2024-02-17T23:35:06.980Z,8.20
2024-02-17T23:41:05.207Z,8.10
2024-02-17T23:56:23.381Z,10.90
2024-02-17T23:59:13.926Z,10.00
